In Rescue
 
Open Full Screen Window  High Contrast Mode
Wind Gusting 00 knots
08
November 14, 2019 1:04 PM CST
Weather Information
Wind Direction
  230 °
Wind Speed
  08 kt (9 mph)
Wind Gust
  00 kt (0 mph)
Altimeter
30.00 in
Visibility
10 SM
Temperature
-02° C
28° F
Dewpoint
-08° C
18° F
Humidity
64%
1hr Rain Fall
00.00 in.
24hr Rain Fall
00.00 in.
Sky Condition
Overcast @ 5,000 ft
VFR

METAR KBJI 141904Z AUTO 23008KT 10SM OVC050 M02/M08 A3000 RMK AO2 T10171079

FAA Disclaimer: The data displayed is for advisory purposes only and is not to be used for flight planning or operations.